createdAt,value
2022-07-29T00:00:28.517Z,101261.40
2022-07-29T00:02:30.441Z,101263.02
2022-07-29T00:04:32.260Z,101260.85
2022-07-29T00:06:34.045Z,101258.06
2022-07-29T00:08:35.775Z,101260.02
2022-07-29T00:11:15.294Z,101259.02
2022-07-29T00:13:17.006Z,101258.67
2022-07-29T00:15:18.737Z,101258.31
2022-07-29T00:17:20.416Z,101258.24
2022-07-29T00:19:22.090Z,101255.12
2022-07-29T00:21:25.062Z,101261.10
2022-07-29T00:23:26.986Z,101257.05
2022-07-29T00:25:28.691Z,101258.78
2022-07-29T00:27:30.374Z,101260.04
2022-07-29T00:29:33.933Z,101261.34
2022-07-29T00:31:36.474Z,101257.45
2022-07-29T00:33:38.218Z,101255.02
2022-07-29T00:35:45.682Z,101253.39
2022-07-29T00:37:47.353Z,101252.11
2022-07-29T00:39:49.578Z,101249.35
2022-07-29T00:41:51.239Z,101248.13
2022-07-29T00:43:52.894Z,101252.67
2022-07-29T00:45:54.592Z,101256.41
2022-07-29T00:47:56.346Z,101251.63
2022-07-29T00:49:58.570Z,101249.00
2022-07-29T00:52:01.718Z,101244.31
2022-07-29T00:54:04.537Z,101242.02
2022-07-29T00:56:06.229Z,101240.88
2022-07-29T00:58:08.174Z,101240.48
2022-07-29T01:00:16.584Z,101244.57
2022-07-29T01:02:18.883Z,101241.02
2022-07-29T01:04:24.538Z,101240.50
2022-07-29T01:06:26.223Z,101242.61
2022-07-29T01:08:28.655Z,101237.90
2022-07-29T01:10:30.517Z,101240.39
2022-07-29T01:12:34.522Z,101238.74
2022-07-29T01:14:37.351Z,101238.90
2022-07-29T01:16:47.608Z,101241.45
2022-07-29T01:18:51.324Z,101237.82
2022-07-29T01:21:21.038Z,101236.88
2022-07-29T01:23:38.619Z,101236.03
2022-07-29T01:25:42.861Z,101230.88
2022-07-29T01:28:10.451Z,101233.58
2022-07-29T01:30:15.708Z,101240.89
2022-07-29T01:32:28.355Z,101239.19
2022-07-29T01:34:58.110Z,101242.25
2022-07-29T01:37:05.393Z,101247.38
2022-07-29T01:39:15.584Z,101245.36
2022-07-29T01:41:18.739Z,101245.85
2022-07-29T01:43:22.664Z,101242.89
2022-07-29T01:45:40.177Z,101240.35
2022-07-29T01:47:48.686Z,101241.88
2022-07-29T01:49:52.937Z,101247.42
2022-07-29T01:52:05.024Z,101249.69
2022-07-29T01:54:15.678Z,101254.44
2022-07-29T01:56:19.760Z,101256.02
2022-07-29T01:58:21.779Z,101257.17
2022-07-29T02:00:23.802Z,101257.00
2022-07-29T02:02:25.788Z,101256.07
2022-07-29T02:04:30.190Z,101258.63
2022-07-29T02:06:33.686Z,101258.00
2022-07-29T02:08:36.815Z,101262.13
2022-07-29T02:10:40.386Z,101262.59
2022-07-29T02:12:43.954Z,101257.45
2022-07-29T02:14:54.521Z,101251.27
2022-07-29T02:16:57.129Z,101254.32
2022-07-29T02:18:59.190Z,101255.22
2022-07-29T02:21:01.863Z,101259.89
2022-07-29T02:23:03.957Z,101259.92
2022-07-29T02:25:05.779Z,101260.31
2022-07-29T02:27:08.550Z,101258.61
2022-07-29T02:29:13.161Z,101255.08
2022-07-29T02:31:15.263Z,101254.98
2022-07-29T02:33:16.998Z,101257.70
2022-07-29T02:35:19.609Z,101259.41
2022-07-29T02:37:22.570Z,101255.90
2022-07-29T02:39:25.593Z,101254.60
2022-07-29T02:41:30.934Z,101258.14
2022-07-29T02:43:33.953Z,101264.97
2022-07-29T02:45:35.651Z,101263.75
2022-07-29T02:47:48.728Z,101262.98
2022-07-29T02:50:02.418Z,101259.41
2022-07-29T02:52:14.384Z,101262.16
2022-07-29T02:54:33.257Z,101260.14
2022-07-29T02:56:38.711Z,101256.06
2022-07-29T02:58:46.352Z,101253.94
2022-07-29T03:00:48.981Z,101253.48
2022-07-29T03:02:55.080Z,101249.60
2022-07-29T03:04:57.278Z,101250.61
2022-07-29T03:07:01.526Z,101252.77
2022-07-29T03:09:05.033Z,101249.94
2022-07-29T03:11:10.077Z,101248.30
2022-07-29T03:13:13.465Z,101246.86
2022-07-29T03:15:15.234Z,101248.59
2022-07-29T03:17:17.572Z,101248.39
2022-07-29T03:19:21.177Z,101248.17
2022-07-29T03:21:23.099Z,101248.75
2022-07-29T03:23:25.120Z,101245.56
2022-07-29T03:25:28.267Z,101248.31
2022-07-29T03:27:30.020Z,101253.05
2022-07-29T03:29:33.462Z,101250.61
2022-07-29T03:31:36.216Z,101251.55
2022-07-29T03:33:37.873Z,101252.54
2022-07-29T03:35:39.624Z,101247.05
2022-07-29T03:37:41.265Z,101245.97
2022-07-29T03:39:44.089Z,101247.42
2022-07-29T03:41:48.539Z,101248.59
2022-07-29T03:43:51.012Z,101246.05
2022-07-29T03:45:54.492Z,101248.10
2022-07-29T03:48:01.258Z,101250.95
2022-07-29T03:50:07.262Z,101250.34
2022-07-29T03:52:12.481Z,101251.20
2022-07-29T03:54:14.467Z,101255.90
2022-07-29T03:56:17.829Z,101254.67
2022-07-29T03:58:19.875Z,101256.94
2022-07-29T04:00:23.061Z,101257.72
2022-07-29T04:02:30.588Z,101263.05
2022-07-29T04:04:36.268Z,101265.56
2022-07-29T04:06:45.097Z,101261.74
2022-07-29T04:08:47.809Z,101257.20
2022-07-29T04:10:49.527Z,101257.14
2022-07-29T04:12:51.839Z,101263.30
2022-07-29T04:14:53.747Z,101270.39
2022-07-29T04:16:55.422Z,101266.91
2022-07-29T04:18:58.279Z,101269.00
2022-07-29T04:24:17.545Z,101264.48
2022-07-29T04:26:20.675Z,101265.06
2022-07-29T04:28:22.334Z,101262.71
2022-07-29T04:30:24.152Z,101263.73
2022-07-29T04:32:26.694Z,101261.41
2022-07-29T04:34:53.686Z,101260.36
2022-07-29T04:36:56.196Z,101263.26
2022-07-29T04:38:58.004Z,101254.59
2022-07-29T04:40:59.677Z,101256.27
2022-07-29T04:43:03.194Z,101259.00
2022-07-29T04:45:07.800Z,101260.79
2022-07-29T04:47:09.736Z,101264.91
2022-07-29T04:49:11.453Z,101261.92
2022-07-29T04:51:13.630Z,101266.36
2022-07-29T04:53:15.171Z,101264.23
2022-07-29T04:55:16.891Z,101269.77
2022-07-29T04:57:18.563Z,101264.42
2022-07-29T04:59:20.247Z,101261.18
2022-07-29T05:01:22.197Z,101263.33
2022-07-29T05:03:23.868Z,101254.73
2022-07-29T05:05:25.516Z,101251.13
2022-07-29T05:07:27.419Z,101247.73
2022-07-29T05:09:29.107Z,101246.41
2022-07-29T05:12:40.915Z,101250.33
2022-07-29T05:14:42.570Z,101258.53
2022-07-29T05:16:44.506Z,101262.38
2022-07-29T05:18:46.210Z,101265.50
2022-07-29T05:20:47.878Z,101269.42
2022-07-29T05:22:51.159Z,101273.52
2022-07-29T05:24:53.050Z,101275.52
2022-07-29T05:31:11.380Z,101283.49
2022-07-29T05:33:36.023Z,101284.54
2022-07-29T05:35:36.021Z,101286.81
2022-07-29T05:37:37.708Z,101285.94
2022-07-29T05:39:48.299Z,101286.84
2022-07-29T05:41:52.132Z,101284.60
2022-07-29T05:43:53.903Z,101286.59
2022-07-29T05:45:55.903Z,101290.88
2022-07-29T05:47:58.138Z,101291.09
2022-07-29T05:49:59.733Z,101290.55
2022-07-29T05:52:01.390Z,101289.92
2022-07-29T05:54:03.161Z,101289.34
2022-07-29T05:56:06.117Z,101285.82
2022-07-29T05:58:07.946Z,101285.79
2022-07-29T06:00:10.437Z,101281.67
2022-07-29T06:02:12.492Z,101284.33
2022-07-29T06:04:14.514Z,101287.65
2022-07-29T06:06:16.479Z,101290.56
2022-07-29T06:08:18.437Z,101298.14
2022-07-29T06:10:20.196Z,101299.05
2022-07-29T06:12:25.648Z,101296.98
2022-07-29T06:14:30.402Z,101297.91
2022-07-29T06:16:32.116Z,101301.18
2022-07-29T06:18:34.063Z,101297.02
2022-07-29T06:20:36.306Z,101299.92
2022-07-29T06:22:38.082Z,101298.67
2022-07-29T06:24:44.890Z,101298.38
2022-07-29T06:26:46.598Z,101295.81
2022-07-29T06:28:48.506Z,101293.82
2022-07-29T06:30:51.959Z,101297.98
2022-07-29T06:32:53.822Z,101299.17
2022-07-29T06:35:17.750Z,101299.84
2022-07-29T06:37:17.574Z,101302.38
2022-07-29T06:39:19.340Z,101303.45
2022-07-29T06:41:21.066Z,101306.29
2022-07-29T06:43:22.907Z,101310.03
2022-07-29T06:45:25.308Z,101312.66
2022-07-29T06:47:30.150Z,101315.74
2022-07-29T06:49:31.858Z,101307.04
2022-07-29T06:51:38.946Z,101306.56
2022-07-29T06:54:00.422Z,101309.87
2022-07-29T06:56:04.676Z,101310.88
2022-07-29T06:58:06.382Z,101315.83
2022-07-29T07:00:08.919Z,101313.49
2022-07-29T07:02:10.671Z,101312.95
2022-07-29T07:04:13.174Z,101318.58
2022-07-29T07:06:15.353Z,101320.70
2022-07-29T07:08:17.207Z,101318.92
2022-07-29T07:10:18.964Z,101318.86
2022-07-29T07:12:20.854Z,101317.89
2022-07-29T07:14:22.527Z,101316.03
2022-07-29T07:16:24.263Z,101319.81
2022-07-29T07:18:25.930Z,101319.38
2022-07-29T07:20:27.734Z,101323.33
2022-07-29T07:22:29.404Z,101324.77
2022-07-29T07:24:31.068Z,101323.89
2022-07-29T07:26:33.884Z,101321.73
2022-07-29T07:28:35.552Z,101320.64
2022-07-29T07:30:37.416Z,101316.98
2022-07-29T07:32:39.118Z,101318.25
2022-07-29T07:34:40.874Z,101319.25
2022-07-29T07:36:42.584Z,101316.16
2022-07-29T07:38:44.240Z,101320.35
2022-07-29T07:40:47.421Z,101322.89
2022-07-29T07:42:49.069Z,101326.71
2022-07-29T07:45:12.092Z,101326.20
2022-07-29T07:47:13.358Z,101324.38
2022-07-29T07:49:15.119Z,101325.19
2022-07-29T07:51:16.794Z,101324.37
2022-07-29T07:53:18.633Z,101328.41
2022-07-29T07:55:20.978Z,101327.77
2022-07-29T07:57:22.679Z,101333.63
2022-07-29T07:59:24.542Z,101333.08
2022-07-29T08:01:27.355Z,101329.40
2022-07-29T08:03:29.266Z,101328.63
2022-07-29T08:05:30.837Z,101328.40
2022-07-29T08:07:32.534Z,101324.48
2022-07-29T08:09:35.355Z,101323.16
2022-07-29T08:11:37.752Z,101317.05
2022-07-29T08:13:39.771Z,101317.65
2022-07-29T08:15:42.497Z,101315.60
2022-07-29T08:17:44.181Z,101315.85
2022-07-29T08:19:46.560Z,101314.92
2022-07-29T08:21:48.775Z,101312.63
2022-07-29T08:23:59.699Z,101306.71
2022-07-29T08:26:02.438Z,101300.66
2022-07-29T08:28:04.289Z,101303.48
2022-07-29T08:30:06.606Z,101303.80
2022-07-29T08:32:08.373Z,101306.17
2022-07-29T08:34:10.443Z,101312.61
2022-07-29T08:36:14.230Z,101308.72
2022-07-29T08:38:15.942Z,101311.27
2022-07-29T08:40:17.753Z,101316.46
2022-07-29T08:42:21.126Z,101316.43
2022-07-29T08:44:30.448Z,101315.71
2022-07-29T08:46:32.755Z,101311.45
2022-07-29T08:48:34.685Z,101305.52
2022-07-29T08:50:36.684Z,101306.56
2022-07-29T08:52:40.400Z,101303.23
2022-07-29T08:54:44.926Z,101300.83
2022-07-29T08:56:50.639Z,101304.51
2022-07-29T08:58:53.502Z,101307.90
2022-07-29T09:00:56.440Z,101307.70
2022-07-29T09:03:00.345Z,101302.81
2022-07-29T09:05:03.609Z,101299.48
2022-07-29T09:07:06.818Z,101299.30
2022-07-29T09:09:08.871Z,101301.73
2022-07-29T09:11:12.487Z,101297.02
2022-07-29T09:13:14.199Z,101299.54
2022-07-29T09:15:15.960Z,101300.48
2022-07-29T09:17:20.935Z,101299.60
2022-07-29T09:19:34.491Z,101297.52
2022-07-29T09:21:59.869Z,101296.86
2022-07-29T09:24:13.504Z,101297.99
2022-07-29T09:26:15.268Z,101292.23
2022-07-29T09:28:20.168Z,101293.54
2022-07-29T09:30:30.433Z,101292.52
2022-07-29T09:32:34.698Z,101292.97
2022-07-29T09:34:36.541Z,101297.06
2022-07-29T09:36:41.381Z,101294.70
2022-07-29T09:38:42.924Z,101294.11
2022-07-29T09:40:44.442Z,101296.39
2022-07-29T09:42:46.305Z,101299.00
2022-07-29T09:44:49.512Z,101296.41
2022-07-29T09:46:55.275Z,101294.77
2022-07-29T09:49:10.432Z,101288.92
2022-07-29T09:51:21.443Z,101287.98
2022-07-29T09:53:30.520Z,101287.17
2022-07-29T09:55:32.089Z,101283.59
2022-07-29T09:57:33.661Z,101289.56
2022-07-29T09:59:35.274Z,101289.34
2022-07-29T10:01:37.091Z,101286.01
2022-07-29T10:03:51.854Z,101276.65
2022-07-29T10:06:09.955Z,101277.34
2022-07-29T10:08:13.262Z,101278.41
2022-07-29T10:10:21.875Z,101277.63
2022-07-29T10:12:23.894Z,101274.67
2022-07-29T10:14:26.196Z,101273.79
2022-07-29T10:16:33.648Z,101275.42
2022-07-29T10:18:35.490Z,101274.45
2022-07-29T10:20:37.222Z,101274.07
2022-07-29T10:22:54.427Z,101273.14
2022-07-29T10:24:56.091Z,101269.20
2022-07-29T10:26:58.474Z,101267.80
2022-07-29T10:29:00.718Z,101267.02
2022-07-29T10:31:06.754Z,101269.93
2022-07-29T10:33:26.385Z,101266.89
2022-07-29T10:35:46.427Z,101265.83
2022-07-29T10:37:56.910Z,101264.86
2022-07-29T10:40:36.058Z,101255.79
2022-07-29T10:42:37.639Z,101252.31
2022-07-29T10:44:41.937Z,101248.80
2022-07-29T10:46:43.927Z,101249.30
2022-07-29T10:49:04.769Z,101251.93
2022-07-29T10:51:07.149Z,101248.36
2022-07-29T10:53:08.941Z,101250.80
2022-07-29T10:55:33.237Z,101248.11
2022-07-29T10:57:53.251Z,101247.66
2022-07-29T11:00:06.579Z,101247.84
2022-07-29T11:02:42.033Z,101247.33
2022-07-29T11:04:45.115Z,101248.52
2022-07-29T11:07:03.824Z,101246.64
2022-07-29T11:09:25.884Z,101248.80
2022-07-29T11:11:37.941Z,101248.48
2022-07-29T11:13:48.941Z,101255.00
2022-07-29T11:15:55.016Z,101250.78
2022-07-29T11:18:03.146Z,101250.20
2022-07-29T11:20:24.343Z,101248.74
2022-07-29T11:22:33.104Z,101245.50
2022-07-29T11:24:35.848Z,101242.96
2022-07-29T11:26:37.537Z,101241.75
2022-07-29T11:28:56.823Z,101243.73
2022-07-29T11:30:58.387Z,101245.30
2022-07-29T11:33:00.465Z,101242.16
2022-07-29T11:35:37.215Z,101239.98
2022-07-29T11:37:45.842Z,101238.54
2022-07-29T11:39:54.417Z,101238.58
2022-07-29T11:42:16.527Z,101240.87
2022-07-29T11:44:18.212Z,101236.75
2022-07-29T11:46:38.841Z,101236.73
2022-07-29T11:48:44.283Z,101230.64
2022-07-29T11:50:48.847Z,101226.33
2022-07-29T11:52:51.200Z,101222.86
2022-07-29T11:54:58.389Z,101220.20
2022-07-29T11:57:15.363Z,101217.34
2022-07-29T11:59:17.727Z,101217.31
2022-07-29T12:07:35.137Z,101210.35
2022-07-29T12:09:40.109Z,101207.84
2022-07-29T12:11:47.430Z,101204.21
2022-07-29T12:13:49.864Z,101200.86
2022-07-29T12:15:54.997Z,101197.65
2022-07-29T12:17:56.996Z,101193.13
2022-07-29T12:20:04.132Z,101192.51
2022-07-29T12:22:05.964Z,101190.05
2022-07-29T12:24:09.497Z,101187.00
2022-07-29T12:26:25.342Z,101189.66
2022-07-29T12:28:27.745Z,101187.44
2022-07-29T12:30:40.636Z,101185.75
2022-07-29T12:32:43.247Z,101180.70
2022-07-29T12:34:44.819Z,101177.80
2022-07-29T12:36:46.420Z,101171.65
2022-07-29T12:38:47.988Z,101168.12
2022-07-29T12:40:51.750Z,101164.80
2022-07-29T12:43:10.201Z,101168.83
2022-07-29T12:45:12.022Z,101168.32
2022-07-29T12:47:13.546Z,101173.62
2022-07-29T12:49:24.216Z,101178.89
2022-07-29T12:51:32.999Z,101178.29
2022-07-29T12:53:34.670Z,101175.34
2022-07-29T12:55:41.849Z,101170.03
2022-07-29T12:57:50.575Z,101170.60
2022-07-29T13:00:11.910Z,101170.67
2022-07-29T13:02:25.641Z,101168.77
2022-07-29T13:04:30.878Z,101166.15
2022-07-29T13:06:36.705Z,101168.31
2022-07-29T13:08:38.392Z,101165.66
2022-07-29T13:10:40.064Z,101163.76
2022-07-29T13:13:00.268Z,101166.02
2022-07-29T13:15:02.115Z,101169.63
2022-07-29T13:17:07.780Z,101173.17
2022-07-29T13:19:12.372Z,101170.55
2022-07-29T13:21:14.676Z,101167.41
2022-07-29T13:23:16.709Z,101163.98
2022-07-29T13:25:25.071Z,101170.62
2022-07-29T13:27:27.591Z,101172.91
2022-07-29T13:29:31.625Z,101169.52
2022-07-29T13:31:33.394Z,101170.44
2022-07-29T13:33:34.922Z,101168.74
2022-07-29T13:35:40.147Z,101170.73
2022-07-29T13:37:41.912Z,101174.31
2022-07-29T13:39:43.989Z,101171.42
2022-07-29T13:41:54.940Z,101172.55
2022-07-29T13:43:58.149Z,101171.28
2022-07-29T13:46:00.038Z,101170.29
2022-07-29T13:48:01.676Z,101169.30
2022-07-29T13:50:04.187Z,101169.61
2022-07-29T13:52:08.470Z,101165.54
2022-07-29T13:54:10.155Z,101165.22
2022-07-29T13:56:11.691Z,101167.54
2022-07-29T13:58:13.632Z,101168.81
2022-07-29T14:00:16.225Z,101170.77
2022-07-29T14:02:18.051Z,101167.97
2022-07-29T14:04:19.758Z,101166.45
2022-07-29T14:06:25.655Z,101171.15
2022-07-29T14:08:41.676Z,101167.68
2022-07-29T14:10:43.434Z,101171.39
2022-07-29T14:12:45.200Z,101172.57
2022-07-29T14:14:48.143Z,101173.19
2022-07-29T14:17:19.097Z,101172.61
2022-07-29T14:19:21.113Z,101171.30
2022-07-29T14:21:22.832Z,101170.73
2022-07-29T14:23:25.681Z,101169.96
2022-07-29T14:25:31.689Z,101158.68
2022-07-29T14:27:38.296Z,101152.77
2022-07-29T14:29:40.141Z,101144.17
2022-07-29T14:31:41.860Z,101150.60
2022-07-29T14:33:43.859Z,101150.61
2022-07-29T14:35:48.110Z,101160.23
2022-07-29T14:37:50.152Z,101160.73
2022-07-29T14:39:51.818Z,101153.22
2022-07-29T14:41:54.772Z,101148.52
2022-07-29T14:43:57.827Z,101153.20
2022-07-29T14:46:03.957Z,101152.60
2022-07-29T14:48:07.278Z,101147.08
2022-07-29T14:50:09.298Z,101151.61
2022-07-29T14:52:11.065Z,101151.69
2022-07-29T14:54:15.799Z,101150.06
2022-07-29T14:56:35.986Z,101149.55
2022-07-29T14:58:38.572Z,101140.52
2022-07-29T15:00:53.518Z,101142.38
2022-07-29T15:03:03.081Z,101148.85
2022-07-29T15:05:05.353Z,101148.70
2022-07-29T15:07:07.291Z,101151.80
2022-07-29T15:09:09.102Z,101149.27
2022-07-29T15:11:10.960Z,101143.09
2022-07-29T15:13:12.548Z,101149.02
2022-07-29T15:15:14.123Z,101146.17
2022-07-29T15:17:15.768Z,101145.05
2022-07-29T15:19:17.568Z,101144.17
2022-07-29T15:21:19.120Z,101140.19
2022-07-29T15:23:20.706Z,101143.46
2022-07-29T15:25:22.803Z,101142.59
2022-07-29T15:27:24.353Z,101148.86
2022-07-29T15:29:25.936Z,101142.14
2022-07-29T15:31:27.495Z,101145.63
2022-07-29T15:33:29.152Z,101147.93
2022-07-29T15:35:31.314Z,101149.43
2022-07-29T15:37:48.767Z,101146.91
2022-07-29T15:39:51.331Z,101147.74
2022-07-29T15:42:50.793Z,101141.48
2022-07-29T15:44:52.360Z,101151.15
2022-07-29T15:47:09.097Z,101153.36
2022-07-29T15:49:11.833Z,101158.73
2022-07-29T15:51:13.496Z,101153.56
2022-07-29T15:53:15.217Z,101154.89
2022-07-29T15:55:16.816Z,101154.86
2022-07-29T15:57:18.385Z,101159.26
2022-07-29T15:59:22.045Z,101155.75
2022-07-29T16:01:25.025Z,101158.66
2022-07-29T16:03:26.729Z,101157.95
2022-07-29T16:05:29.654Z,101158.30
2022-07-29T16:07:31.720Z,101158.45
2022-07-29T16:09:34.473Z,101153.42
2022-07-29T16:11:36.244Z,101159.57
2022-07-29T16:13:37.782Z,101154.61
2022-07-29T16:15:39.767Z,101158.70
2022-07-29T16:17:41.300Z,101153.98
2022-07-29T16:19:43.465Z,101150.52
2022-07-29T16:21:45.126Z,101154.92
2022-07-29T16:23:46.713Z,101152.86
2022-07-29T16:25:59.619Z,101154.34
2022-07-29T16:28:02.078Z,101154.02
2022-07-29T16:30:04.177Z,101151.89
2022-07-29T16:32:06.173Z,101154.49
2022-07-29T16:34:07.857Z,101156.14
2022-07-29T16:36:09.391Z,101156.92
2022-07-29T16:38:14.683Z,101156.27
2022-07-29T16:40:16.230Z,101157.98
2022-07-29T16:42:36.913Z,101155.17
2022-07-29T16:44:40.704Z,101153.54
2022-07-29T16:46:44.087Z,101151.54
2022-07-29T16:48:46.012Z,101154.23
2022-07-29T16:50:47.644Z,101155.09
2022-07-29T16:52:49.214Z,101161.48
2022-07-29T16:54:50.755Z,101169.65
2022-07-29T16:56:52.340Z,101168.37
2022-07-29T16:58:53.924Z,101170.93
2022-07-29T17:00:55.905Z,101177.91
2022-07-29T17:02:57.506Z,101179.47
2022-07-29T17:04:59.140Z,101176.60
2022-07-29T17:07:01.289Z,101182.30
2022-07-29T17:09:06.601Z,101174.98
2022-07-29T17:11:08.151Z,101172.14
2022-07-29T17:13:09.728Z,101169.25
2022-07-29T17:15:12.453Z,101167.09
2022-07-29T17:17:16.731Z,101168.30
2022-07-29T17:19:22.529Z,101160.06
2022-07-29T17:21:24.259Z,101157.80
2022-07-29T17:23:26.587Z,101160.56
2022-07-29T17:28:25.103Z,101166.73
2022-07-29T17:30:26.862Z,101168.40
2022-07-29T17:32:28.450Z,101170.80
2022-07-29T17:34:30.063Z,101171.20
2022-07-29T17:36:53.704Z,101170.10
2022-07-29T17:38:59.384Z,101171.44
2022-07-29T17:41:00.910Z,101169.94
2022-07-29T17:43:02.533Z,101176.83
2022-07-29T17:45:04.237Z,101175.78
2022-07-29T17:47:15.551Z,101178.88
2022-07-29T17:49:18.200Z,101176.70
2022-07-29T17:51:19.787Z,101181.21
2022-07-29T17:53:21.323Z,101184.34
2022-07-29T17:55:22.886Z,101190.08
2022-07-29T17:57:24.690Z,101192.20
2022-07-29T17:59:26.223Z,101197.06
2022-07-29T18:01:28.138Z,101199.39
2022-07-29T18:03:30.158Z,101204.34
2022-07-29T18:05:31.758Z,101208.63
2022-07-29T18:07:33.354Z,101207.73
2022-07-29T18:09:34.910Z,101208.55
2022-07-29T18:11:36.446Z,101205.95
2022-07-29T18:13:40.599Z,101208.40
2022-07-29T18:15:42.618Z,101210.27
2022-07-29T18:17:56.575Z,101213.35
2022-07-29T18:19:59.167Z,101216.60
2022-07-29T18:22:05.416Z,101220.23
2022-07-29T18:24:07.746Z,101224.81
2022-07-29T18:26:09.919Z,101225.00
2022-07-29T18:28:11.464Z,101230.08
2022-07-29T18:30:15.032Z,101230.21
2022-07-29T18:32:16.690Z,101227.48
2022-07-29T18:34:19.275Z,101226.21
2022-07-29T18:36:20.881Z,101225.48
2022-07-29T18:38:22.881Z,101229.16
2022-07-29T18:40:25.775Z,101226.77
2022-07-29T18:42:27.373Z,101230.15
2022-07-29T18:44:28.946Z,101234.92
2022-07-29T18:46:31.246Z,101234.31
2022-07-29T18:48:34.708Z,101238.63
2022-07-29T18:50:36.452Z,101234.75
2022-07-29T18:52:38.030Z,101234.57
2022-07-29T18:54:39.578Z,101243.66
2022-07-29T18:56:41.273Z,101245.46
2022-07-29T18:58:42.792Z,101247.66
2022-07-29T19:00:44.334Z,101245.86
2022-07-29T19:02:46.053Z,101248.34
2022-07-29T19:04:49.741Z,101248.20
2022-07-29T19:06:51.374Z,101247.80
2022-07-29T19:08:53.319Z,101242.39
2022-07-29T19:10:54.842Z,101246.59
2022-07-29T19:12:59.241Z,101246.98
2022-07-29T19:15:20.765Z,101249.73
2022-07-29T19:17:22.556Z,101250.99
2022-07-29T19:19:24.175Z,101254.15
2022-07-29T19:21:25.854Z,101255.98
2022-07-29T19:23:27.660Z,101259.51
2022-07-29T19:25:29.347Z,101264.39
2022-07-29T19:27:31.778Z,101271.54
2022-07-29T19:29:35.409Z,101274.55
2022-07-29T19:31:37.203Z,101280.17
2022-07-29T19:33:39.287Z,101284.18
2022-07-29T19:35:41.014Z,101282.23
2022-07-29T19:37:42.572Z,101287.15
2022-07-29T19:39:44.253Z,101287.95
2022-07-29T19:41:46.370Z,101287.77
2022-07-29T19:43:51.467Z,101290.39
2022-07-29T19:45:54.469Z,101290.56
2022-07-29T19:48:01.132Z,101288.69
2022-07-29T19:50:03.830Z,101289.82
2022-07-29T19:52:05.997Z,101293.95
2022-07-29T19:54:09.477Z,101300.63
2022-07-29T19:56:11.339Z,101306.27
2022-07-29T19:58:13.027Z,101309.86
2022-07-29T20:00:16.253Z,101309.15
2022-07-29T20:02:18.544Z,101309.39
2022-07-29T20:04:20.408Z,101312.83
2022-07-29T20:06:23.187Z,101312.79
2022-07-29T20:08:24.891Z,101312.48
2022-07-29T20:10:26.762Z,101313.13
2022-07-29T20:12:29.006Z,101317.16
2022-07-29T20:14:31.027Z,101321.73
2022-07-29T20:16:32.825Z,101322.08
2022-07-29T20:18:35.130Z,101324.91
2022-07-29T20:20:36.908Z,101325.66
2022-07-29T20:22:38.726Z,101327.70
2022-07-29T20:24:40.562Z,101329.42
2022-07-29T20:26:43.611Z,101333.83
2022-07-29T20:28:49.551Z,101337.15
2022-07-29T20:30:53.399Z,101338.27
2022-07-29T20:32:55.129Z,101342.48
2022-07-29T20:34:56.869Z,101340.67
2022-07-29T20:36:58.768Z,101342.94
2022-07-29T20:39:01.717Z,101348.21
2022-07-29T20:41:03.798Z,101349.09
2022-07-29T20:43:05.881Z,101349.80
2022-07-29T20:45:08.786Z,101350.19
2022-07-29T20:47:10.619Z,101347.86
2022-07-29T20:49:12.455Z,101342.45
2022-07-29T20:51:14.502Z,101342.27
2022-07-29T20:53:20.461Z,101340.14
2022-07-29T20:55:22.178Z,101342.84
2022-07-29T20:57:38.662Z,101344.11
2022-07-29T20:59:45.764Z,101342.80
2022-07-29T21:01:47.749Z,101343.21
2022-07-29T21:03:49.501Z,101344.70
2022-07-29T21:05:51.545Z,101346.71
2022-07-29T21:07:57.854Z,101348.52
2022-07-29T21:10:00.067Z,101348.84
2022-07-29T21:12:02.346Z,101350.94
2022-07-29T21:14:04.286Z,101351.02
2022-07-29T21:16:14.833Z,101351.89
2022-07-29T21:18:36.914Z,101352.95
2022-07-29T21:20:38.630Z,101356.27
2022-07-29T21:22:40.618Z,101360.31
2022-07-29T21:24:42.273Z,101359.31
2022-07-29T21:26:50.624Z,101361.71
2022-07-29T21:28:56.282Z,101360.99
2022-07-29T21:31:01.195Z,101357.14
2022-07-29T21:33:03.907Z,101362.66
2022-07-29T21:35:18.197Z,101357.33
2022-07-29T21:37:28.126Z,101364.11
2022-07-29T21:39:29.805Z,101366.91
2022-07-29T21:41:31.517Z,101363.57
2022-07-29T21:43:33.274Z,101365.16
2022-07-29T21:45:35.024Z,101365.85
2022-07-29T21:47:36.665Z,101367.20
2022-07-29T21:49:38.461Z,101371.08
2022-07-29T21:51:40.113Z,101369.52
2022-07-29T22:00:28.752Z,101367.58
2022-07-29T22:02:30.420Z,101365.39
2022-07-29T22:04:32.391Z,101363.02
2022-07-29T22:06:34.652Z,101366.74
2022-07-29T22:08:36.317Z,101367.96
2022-07-29T22:10:38.060Z,101366.23
2022-07-29T22:13:11.766Z,101365.73
2022-07-29T22:15:13.670Z,101363.63
2022-07-29T22:17:16.095Z,101362.67
2022-07-29T22:19:17.805Z,101354.73
2022-07-29T22:21:21.243Z,101357.70
2022-07-29T22:23:22.891Z,101361.41
2022-07-29T22:25:24.590Z,101367.34
2022-07-29T22:27:26.279Z,101362.67
2022-07-29T22:29:28.367Z,101364.04
2022-07-29T22:31:30.124Z,101362.17
2022-07-29T22:33:31.901Z,101365.98
2022-07-29T22:35:33.654Z,101365.52
2022-07-29T22:37:35.433Z,101367.48
2022-07-29T22:39:37.155Z,101369.34
2022-07-29T22:41:39.004Z,101375.59
2022-07-29T22:43:40.827Z,101379.50
2022-07-29T22:45:42.543Z,101376.77
2022-07-29T22:47:48.179Z,101379.56
2022-07-29T22:49:50.254Z,101377.94
2022-07-29T22:51:51.954Z,101373.84
2022-07-29T22:53:53.883Z,101373.77
2022-07-29T22:55:55.698Z,101372.35
2022-07-29T22:57:57.327Z,101373.37
2022-07-29T23:00:01.678Z,101375.95
2022-07-29T23:02:03.582Z,101374.98
2022-07-29T23:04:06.337Z,101371.80
2022-07-29T23:06:08.049Z,101372.27
2022-07-29T23:08:09.722Z,101375.60
2022-07-29T23:10:11.917Z,101377.69
2022-07-29T23:12:13.624Z,101378.81
2022-07-29T23:14:15.297Z,101383.89
2022-07-29T23:16:26.425Z,101386.86
2022-07-29T23:18:28.682Z,101388.56
2022-07-29T23:20:30.382Z,101391.35
2022-07-29T23:22:35.075Z,101393.79
2022-07-29T23:24:36.739Z,101395.70
2022-07-29T23:26:38.470Z,101396.11
2022-07-29T23:28:40.128Z,101399.16
2022-07-29T23:30:42.899Z,101401.72
2022-07-29T23:32:44.618Z,101405.02
2022-07-29T23:34:46.262Z,101404.14
2022-07-29T23:36:47.949Z,101406.43
2022-07-29T23:38:49.689Z,101405.69
2022-07-29T23:40:51.375Z,101400.05
2022-07-29T23:42:53.051Z,101397.80
2022-07-29T23:44:54.730Z,101400.34
2022-07-29T23:46:56.438Z,101400.81
2022-07-29T23:48:58.251Z,101401.46
2022-07-29T23:51:01.231Z,101402.48
2022-07-29T23:53:02.907Z,101398.58
2022-07-29T23:55:36.579Z,101400.27
2022-07-29T23:57:27.397Z,101397.30
2022-07-29T23:59:28.942Z,101402.26
